Time;durP1;ratioP1;P1;durP2;ratioP2;P2;SDS_P1;SDS_P2;PMS_P1;PMS_P2;Temp;Humidity;BMP_temperature;BMP_pressure;BME280_temperature;BME280_humidity;BME280_pressure;Samples;Min_cycle;Max_cycle;Signal;HPM_P1;HPM_P2
2024/01/28 00:03:41;;;;;;;21.70;5.10;;;;;;;5.37;100.00;102411.96;220269;1266;140532;-89
2024/01/28 00:08:41;;;;;;;28.00;6.90;;;;;;;5.35;100.00;102409.48;220697;1266;138607;-88
2024/01/28 00:13:42;;;;;;;25.80;7.50;;;;;;;5.34;100.00;102407.31;221862;1264;140235;-89
2024/01/28 00:18:42;;;;;;;31.00;5.50;;;;;;;5.30;100.00;102408.36;221298;1266;138888;-88
2024/01/28 00:23:42;;;;;;;17.50;5.50;;;;;;;5.29;100.00;102408.36;219969;1267;139595;-89
2024/01/28 00:28:43;;;;;;;28.60;9.10;;;;;;;5.29;100.00;102405.75;219973;1267;139676;-89
2024/01/28 00:33:43;;;;;;;23.00;9.30;;;;;;;5.27;100.00;102406.86;219483;1266;139986;-88
2024/01/28 00:38:44;;;;;;;24.90;7.00;;;;;;;5.25;100.00;102410.27;219852;1269;138965;-89
2024/01/28 00:43:44;;;;;;;24.80;7.30;;;;;;;5.22;100.00;102413.27;219476;1264;139732;-90
2024/01/28 00:48:45;;;;;;;19.00;6.20;;;;;;;5.21;100.00;102420.77;219812;1269;138622;-90
2024/01/28 00:53:45;;;;;;;17.50;5.30;;;;;;;5.18;100.00;102420.52;219263;1264;139757;-89
2024/01/28 00:58:46;;;;;;;21.40;5.30;;;;;;;5.15;100.00;102426.02;219756;1266;138705;-89
2024/01/28 01:03:47;;;;;;;18.30;5.10;;;;;;;5.14;100.00;102421.70;219403;1268;140202;-89
2024/01/28 01:08:48;;;;;;;28.50;6.40;;;;;;;5.14;100.00;102419.70;219757;1265;139051;-89
2024/01/28 01:13:51;;;;;;;28.30;6.60;;;;;;;5.14;100.00;102410.70;220133;1268;139594;-88
2024/01/28 01:18:52;;;;;;;21.50;6.40;;;;;;;5.13;100.00;102408.36;220964;1267;138692;-89
2024/01/28 01:23:52;;;;;;;14.60;5.20;;;;;;;5.10;100.00;102423.95;219341;1267;139544;-88
2024/01/28 01:28:53;;;;;;;23.30;6.20;;;;;;;5.09;100.00;102430.64;219489;1264;139051;-90
2024/01/28 01:33:53;;;;;;;18.90;5.80;;;;;;;5.07;100.00;102440.05;219176;1264;139792;-89
2024/01/28 01:38:54;;;;;;;22.70;5.70;;;;;;;5.05;100.00;102447.48;219515;1268;138552;-89
2024/01/28 01:43:55;;;;;;;17.80;5.70;;;;;;;5.02;100.00;102447.20;219195;1268;139326;-89
2024/01/28 01:48:57;;;;;;;20.10;6.20;;;;;;;5.01;100.00;102448.84;219719;1268;138587;-89
2024/01/28 01:53:58;;;;;;;16.20;4.90;;;;;;;4.99;100.00;102447.95;219026;1269;139354;-90
2024/01/28 01:58:59;;;;;;;14.20;5.00;;;;;;;4.98;100.00;102441.41;219655;1267;138845;-88
2024/01/28 02:03:59;;;;;;;17.80;5.00;;;;;;;4.99;100.00;102449.10;219125;1269;139728;-89
2024/01/28 02:09:00;;;;;;;19.60;6.20;;;;;;;4.98;100.00;102449.22;219701;1264;138512;-89
2024/01/28 02:14:00;;;;;;;17.10;6.20;;;;;;;4.98;100.00;102446.54;219054;1269;140348;-88
2024/01/28 02:19:01;;;;;;;22.50;5.50;;;;;;;4.98;100.00;102443.92;221899;1269;138962;-89
2024/01/28 02:24:01;;;;;;;23.60;5.70;;;;;;;4.98;100.00;102437.59;219137;1266;139443;-90
2024/01/28 02:29:03;;;;;;;20.10;6.10;;;;;;;4.98;100.00;102440.65;219597;1268;138603;-89
2024/01/28 02:34:04;;;;;;;19.10;5.10;;;;;;;4.97;100.00;102441.96;219343;1269;139944;-89
2024/01/28 02:39:04;;;;;;;18.80;5.50;;;;;;;4.97;100.00;102444.96;219635;1266;138451;-89
2024/01/28 02:44:05;;;;;;;19.40;5.10;;;;;;;4.96;100.00;102453.99;219301;1268;139932;-89
2024/01/28 02:49:06;;;;;;;17.90;5.70;;;;;;;4.96;100.00;102451.74;219699;1269;139233;-89
2024/01/28 02:54:06;;;;;;;23.30;5.90;;;;;;;4.97;100.00;102452.39;219187;1269;139487;-88
2024/01/28 02:59:06;;;;;;;20.40;5.40;;;;;;;4.94;100.00;102456.89;219664;1269;138753;-89
2024/01/28 03:04:07;;;;;;;19.10;5.80;;;;;;;4.94;100.00;102462.73;219095;1269;139477;-89
2024/01/28 03:09:08;;;;;;;20.90;4.80;;;;;;;4.93;100.00;102463.02;219735;1269;139132;-89
2024/01/28 03:14:10;;;;;;;18.10;5.60;;;;;;;4.93;100.00;102472.73;219066;1266;139443;-88
2024/01/28 03:19:11;;;;;;;22.40;5.50;;;;;;;4.93;100.00;102473.13;222090;1266;138979;-88
2024/01/28 03:24:11;;;;;;;16.60;5.30;;;;;;;4.93;100.00;102476.16;220060;1264;139689;-90
2024/01/28 03:29:13;;;;;;;16.40;5.10;;;;;;;4.92;100.00;102481.87;219677;1264;139280;-89
2024/01/28 03:34:13;;;;;;;20.10;5.10;;;;;;;4.91;100.00;102481.00;219377;1266;140274;-89
2024/01/28 03:39:14;;;;;;;19.90;5.70;;;;;;;4.90;100.00;102475.98;219623;1269;139671;-89
2024/01/28 03:44:20;;;;;;;16.00;5.60;;;;;;;4.91;100.00;102475.71;219332;1264;139712;-89
2024/01/28 03:49:21;;;;;;;26.10;7.00;;;;;;;4.88;100.00;102475.25;219901;1267;139062;-88
2024/01/28 03:54:21;;;;;;;19.40;6.00;;;;;;;4.84;100.00;102474.20;219422;1267;140442;-88
2024/01/28 03:59:22;;;;;;;30.50;6.30;;;;;;;4.82;100.00;102476.84;219664;1269;138765;-89
2024/01/28 04:04:22;;;;;;;22.70;5.80;;;;;;;4.80;100.00;102483.91;219422;1267;140351;-89
2024/01/28 04:09:23;;;;;;;19.60;5.60;;;;;;;4.80;100.00;102487.13;219662;1267;139770;-89
2024/01/28 04:14:23;;;;;;;19.90;5.30;;;;;;;4.79;100.00;102488.66;218918;1263;139429;-89
2024/01/28 04:19:24;;;;;;;22.30;5.50;;;;;;;4.77;100.00;102491.80;221175;1264;139971;-89
2024/01/28 04:24:24;;;;;;;16.40;4.70;;;;;;;4.74;100.00;102492.36;220072;1267;138728;-89
2024/01/28 04:29:25;;;;;;;21.00;4.80;;;;;;;4.73;100.00;102489.71;219716;1269;138840;-89
2024/01/28 04:34:25;;;;;;;16.80;3.90;;;;;;;4.71;100.00;102495.23;219170;1264;139751;-86
2024/01/28 04:39:25;;;;;;;15.40;4.60;;;;;;;4.70;100.00;102495.79;219973;1264;99184;-89
2024/01/28 04:44:26;;;;;;;20.20;4.80;;;;;;;4.68;100.00;102507.36;219126;1269;139129;-89
2024/01/28 04:49:27;;;;;;;23.10;4.70;;;;;;;4.66;100.00;102513.98;219774;1269;139770;-89
2024/01/28 04:54:27;;;;;;;22.00;4.90;;;;;;;4.62;100.00;102522.21;219268;1269;140521;-89
2024/01/28 04:59:28;;;;;;;14.70;5.10;;;;;;;4.59;100.00;102520.22;219934;1264;139198;-89
2024/01/28 05:04:29;;;;;;;19.50;4.60;;;;;;;4.58;100.00;102524.70;219520;1264;139581;-89
2024/01/28 05:09:29;;;;;;;12.30;4.20;;;;;;;4.55;100.00;102526.52;219965;1264;98637;-89
2024/01/28 05:14:30;;;;;;;19.50;4.50;;;;;;;4.54;100.00;102530.62;219430;1264;140153;-88
2024/01/28 05:19:30;;;;;;;24.20;5.50;;;;;;;4.52;100.00;102528.69;219715;1264;139604;-89
2024/01/28 05:24:31;;;;;;;18.40;5.40;;;;;;;4.53;100.00;102535.86;221328;1264;138865;-89
2024/01/28 05:29:31;;;;;;;20.90;5.50;;;;;;;4.53;100.00;102534.62;219997;1264;139108;-89
2024/01/28 05:34:32;;;;;;;15.30;5.40;;;;;;;4.52;100.00;102531.61;219591;1264;139708;-89
2024/01/28 05:39:32;;;;;;;15.70;5.20;;;;;;;4.51;100.00;102527.69;220330;1264;97939;-89
2024/01/28 05:44:33;;;;;;;18.60;5.50;;;;;;;4.47;100.00;102530.80;219465;1264;139641;-89
2024/01/28 05:49:33;;;;;;;23.80;5.50;;;;;;;4.46;100.00;102533.64;220295;1266;138620;-89
2024/01/28 05:54:33;;;;;;;21.00;5.50;;;;;;;4.44;100.00;102536.05;219926;1267;139364;-88
2024/01/28 05:59:34;;;;;;;15.00;5.20;;;;;;;4.42;100.00;102543.75;220595;1269;138798;-88
2024/01/28 06:04:35;;;;;;;17.20;5.70;;;;;;;4.41;100.00;102539.58;219520;1264;139871;-88
2024/01/28 06:09:35;;;;;;;25.70;6.10;;;;;;;4.41;100.00;102535.69;219897;1269;97924;-88
2024/01/28 06:14:36;;;;;;;14.30;5.10;;;;;;;4.39;100.00;102536.91;219334;1264;139419;-89
2024/01/28 06:19:36;;;;;;;25.40;6.50;;;;;;;4.35;100.00;102543.16;219783;1264;138630;-88
2024/01/28 06:24:40;;;;;;;24.60;6.90;;;;;;;4.32;100.00;102539.91;221315;1264;139465;-89
2024/01/28 06:29:41;;;;;;;20.30;7.10;;;;;;;4.28;100.00;102541.13;219971;1264;138822;-89
2024/01/28 06:34:42;;;;;;;15.80;5.60;;;;;;;4.26;100.00;102543.01;219248;1264;139186;-89
2024/01/28 06:39:42;;;;;;;23.70;6.60;;;;;;;4.26;100.00;102548.36;220044;1264;98386;-89
2024/01/28 06:44:42;;;;;;;18.80;6.30;;;;;;;4.22;100.00;102550.51;219524;1264;139635;-89
2024/01/28 06:49:43;;;;;;;15.80;5.90;;;;;;;4.22;100.00;102569.86;220327;1264;138687;-88
2024/01/28 06:54:44;;;;;;;20.30;6.00;;;;;;;4.23;100.00;102576.77;219607;1264;139425;-90
2024/01/28 06:59:44;;;;;;;21.60;6.00;;;;;;;4.22;100.00;102575.53;220188;1264;139660;-89
2024/01/28 07:04:45;;;;;;;22.30;6.40;;;;;;;4.23;100.00;102579.94;219345;1264;139172;-89
2024/01/28 07:09:45;;;;;;;23.10;6.20;;;;;;;4.26;100.00;102589.95;219620;1264;99177;-89
2024/01/28 07:14:46;;;;;;;20.00;7.00;;;;;;;4.24;100.00;102596.13;219157;1264;139357;-89
2024/01/28 07:19:46;;;;;;;21.40;7.10;;;;;;;4.24;100.00;102589.27;219752;1264;139112;-88
2024/01/28 07:24:47;;;;;;;18.50;6.10;;;;;;;4.23;100.00;102593.56;221330;1264;139102;-88
2024/01/28 07:29:48;;;;;;;16.40;6.40;;;;;;;4.25;100.00;102611.00;219646;1264;138607;-88
2024/01/28 07:34:49;;;;;;;20.80;6.20;;;;;;;4.28;100.00;102614.35;219829;1264;139219;-88
2024/01/28 07:39:49;;;;;;;16.10;6.50;;;;;;;4.31;100.00;102614.00;219705;1264;138442;-88
2024/01/28 07:44:49;;;;;;;29.70;6.40;;;;;;;4.34;100.00;102624.34;219295;1264;139306;-88
2024/01/28 07:49:50;;;;;;;17.60;6.10;;;;;;;4.37;100.00;102626.67;219433;1264;138566;-88
2024/01/28 07:54:51;;;;;;;16.60;6.40;;;;;;;4.39;100.00;102631.35;219746;1264;139136;-89
2024/01/28 07:59:51;;;;;;;18.50;6.70;;;;;;;4.43;100.00;102637.20;219397;1264;139091;-86
2024/01/28 08:04:52;;;;;;;21.60;7.40;;;;;;;4.46;100.00;102640.24;219460;1264;139257;-87
2024/01/28 08:09:53;;;;;;;21.10;7.80;;;;;;;4.45;100.00;102638.35;219466;1263;139954;-88
2024/01/28 08:14:53;;;;;;;27.00;8.10;;;;;;;4.45;100.00;102637.58;219552;1265;139022;-89
2024/01/28 08:19:54;;;;;;;18.50;6.70;;;;;;;4.49;100.00;102630.20;219339;1264;139328;-86
2024/01/28 08:24:55;;;;;;;21.60;7.30;;;;;;;4.52;100.00;102634.52;221275;1264;138810;-87
2024/01/28 08:29:55;;;;;;;17.70;6.70;;;;;;;4.55;100.00;102632.39;219715;1264;140072;-88
2024/01/28 08:34:56;;;;;;;15.60;6.60;;;;;;;4.60;100.00;102634.20;219871;1267;139473;-88
2024/01/28 08:39:56;;;;;;;19.00;7.20;;;;;;;4.64;100.00;102631.83;219312;1264;139846;-88
2024/01/28 08:44:59;;;;;;;18.30;7.60;;;;;;;4.67;100.00;102631.48;219730;1267;138613;-87
2024/01/28 08:49:59;;;;;;;20.60;8.10;;;;;;;4.70;100.00;102634.34;219081;1267;139467;-89
2024/01/28 08:55:00;;;;;;;17.50;6.70;;;;;;;4.72;100.00;102627.35;219693;1267;139255;-87
2024/01/28 09:00:01;;;;;;;16.90;4.60;;;;;;;4.74;100.00;102631.15;219217;1264;140053;-88
2024/01/28 09:05:02;;;;;;;15.90;6.30;;;;;;;4.76;100.00;102642.65;219765;1268;138658;-87
2024/01/28 09:10:02;;;;;;;14.70;4.70;;;;;;;4.79;100.00;102649.13;219080;1264;139805;-87
2024/01/28 09:15:03;;;;;;;20.30;5.20;;;;;;;4.81;100.00;102648.07;219719;1265;140782;-86
2024/01/28 09:20:05;;;;;;;14.10;4.90;;;;;;;4.81;100.00;102649.87;219313;1264;139480;-88
2024/01/28 09:25:05;;;;;;;13.80;5.00;;;;;;;4.85;100.00;102668.48;220781;1264;138752;-90
2024/01/28 09:30:06;;;;;;;14.40;6.50;;;;;;;4.89;100.00;102676.65;220359;1264;140568;-90
2024/01/28 09:35:07;;;;;;;17.00;5.70;;;;;;;4.91;100.00;102689.35;219660;1266;138705;-88
2024/01/28 09:40:11;;;;;;;19.70;7.60;;;;;;;4.95;100.00;102695.70;219297;1264;139673;-91
2024/01/28 09:45:12;;;;;;;14.40;6.70;;;;;;;5.00;100.00;102700.96;219624;1264;138743;-88
2024/01/28 09:50:13;;;;;;;15.80;6.00;;;;;;;5.07;100.00;102703.70;219173;1264;140190;-89
2024/01/28 09:55:14;;;;;;;16.50;6.10;;;;;;;5.11;100.00;102706.73;219529;1264;138846;-89
2024/01/28 10:00:15;;;;;;;16.50;7.00;;;;;;;5.10;100.00;102707.39;219029;1264;142092;-89
2024/01/28 10:05:16;;;;;;;21.70;6.70;;;;;;;5.07;100.00;102697.52;219539;1268;138769;-90
2024/01/28 10:10:17;;;;;;;15.80;5.70;;;;;;;5.10;100.00;102695.32;219012;1267;139803;-91
2024/01/28 10:15:20;;;;;;;18.40;6.30;;;;;;;5.09;100.00;102691.39;219659;1264;138867;-89
2024/01/28 10:20:23;;;;;;;18.30;6.40;;;;;;;5.12;100.00;102694.39;219165;1264;139698;-88
2024/01/28 10:25:23;;;;;;;21.60;7.70;;;;;;;5.15;100.00;102695.27;219683;1264;327059;-88
2024/01/28 10:30:24;;;;;;;17.90;8.70;;;;;;;5.17;100.00;102692.85;220876;1264;139572;-88
2024/01/28 10:35:25;;;;;;;20.00;8.10;;;;;;;5.19;100.00;102680.83;219372;1264;138816;-88
2024/01/28 10:40:36;;;;;;;14.20;7.40;;;;;;;5.21;100.00;102680.48;219088;1265;139899;-89
2024/01/28 10:45:41;;;;;;;17.30;5.90;;;;;;;5.23;100.00;102675.93;219617;1264;98061;-88
2024/01/28 10:50:43;;;;;;;20.90;6.80;;;;;;;5.19;100.00;102682.45;219087;1264;139566;-89
2024/01/28 10:55:45;;;;;;;16.00;6.80;;;;;;;5.21;100.00;102689.27;219529;1264;138933;-90
2024/01/28 11:00:45;;;;;;;12.10;5.00;;;;;;;5.27;100.00;102678.46;218987;1264;140016;-89
2024/01/28 11:05:46;;;;;;;15.10;5.90;;;;;;;5.33;100.00;102664.42;219550;1263;139563;-89
2024/01/28 11:10:48;;;;;;;21.20;6.30;;;;;;;5.42;100.00;102656.16;218999;1265;139693;-89
2024/01/28 11:15:48;;;;;;;16.40;6.40;;;;;;;5.45;100.00;102653.33;219373;1263;108527;-89
2024/01/28 11:20:49;;;;;;;17.90;7.60;;;;;;;5.46;100.00;102647.73;219006;1267;139792;-89
2024/01/28 11:25:53;;;;;;;24.60;7.70;;;;;;;5.53;100.00;102643.30;220155;1264;138851;-89
2024/01/28 11:30:57;;;;;;;16.40;8.40;;;;;;;5.58;100.00;102644.71;220540;1264;139435;-90
2024/01/28 11:36:01;;;;;;;23.70;7.30;;;;;;;5.57;100.00;102651.61;219637;1267;138665;-89
2024/01/28 11:41:02;;;;;;;15.90;7.60;;;;;;;5.56;100.00;102649.06;219132;1264;141329;-89
2024/01/28 11:46:03;;;;;;;19.40;7.70;;;;;;;5.62;100.00;102662.64;220103;1264;98049;-91
2024/01/28 11:51:04;;;;;;;12.90;5.50;;;;;;;5.68;100.00;102656.52;219375;1264;140245;-89
2024/01/28 11:56:07;;;;;;;18.20;5.60;;;;;;;5.78;100.00;102640.73;219783;1264;139088;-89
2024/01/28 12:01:07;;;;;;;19.20;6.90;;;;;;;5.86;100.00;102624.42;219444;1267;139762;-91
2024/01/28 12:06:08;;;;;;;16.60;6.60;;;;;;;5.85;100.00;102620.27;219443;1265;138778;-89
2024/01/28 12:11:13;;;;;;;14.60;5.40;;;;;;;5.86;100.00;102613.26;218990;1267;139719;-89
2024/01/28 12:16:13;;;;;;;16.60;5.70;;;;;;;5.91;100.00;102606.53;219610;1264;110592;-89
2024/01/28 12:21:21;;;;;;;14.60;4.80;;;;;;;5.90;100.00;102605.55;218765;1264;140149;-89
2024/01/28 12:26:22;;;;;;;12.30;4.20;;;;;;;5.93;100.00;102591.77;219772;1267;138964;-89
2024/01/28 12:31:22;;;;;;;18.60;4.80;;;;;;;5.95;100.00;102588.33;220513;1267;139847;-90
2024/01/28 12:36:23;;;;;;;11.90;5.10;;;;;;;5.96;100.00;102588.11;219517;1267;138944;-90
2024/01/28 12:41:24;;;;;;;18.30;5.90;;;;;;;5.94;100.00;102579.77;219185;1266;139750;-90
2024/01/28 12:46:24;;;;;;;20.00;7.40;;;;;;;5.92;100.00;102577.78;219783;1267;97940;-89
2024/01/28 12:51:25;;;;;;;15.60;7.70;;;;;;;5.95;100.00;102575.92;218914;1265;139594;-90
2024/01/28 12:56:25;;;;;;;18.40;8.90;;;;;;;5.90;100.00;102574.30;219830;1266;138599;-91
2024/01/28 13:01:25;;;;;;;16.00;6.50;;;;;;;5.85;100.00;102586.28;218985;1267;142394;-91
2024/01/28 13:06:26;;;;;;;21.20;7.60;;;;;;;5.79;100.00;102608.20;220004;1267;138777;-89
2024/01/28 13:11:27;;;;;;;21.30;7.20;;;;;;;5.81;100.00;102626.71;219936;1267;140094;-89
2024/01/28 13:16:27;;;;;;;16.00;6.40;;;;;;;5.86;100.00;102638.19;219889;1264;139751;-89
2024/01/28 13:21:28;;;;;;;17.90;5.30;;;;;;;5.88;100.00;102638.70;219170;1264;139550;-89
2024/01/28 13:26:28;;;;;;;21.10;6.20;;;;;;;5.92;100.00;102622.98;220057;1264;139129;-92
2024/01/28 13:31:29;;;;;;;18.20;5.00;;;;;;;5.90;100.00;102622.79;220831;1267;139389;-87
2024/01/28 13:36:29;;;;;;;14.50;5.40;;;;;;;5.90;100.00;102609.98;219887;1264;139284;-87
2024/01/28 13:41:30;;;;;;;13.70;5.10;;;;;;;5.94;100.00;102605.45;219465;1264;139118;-89
2024/01/28 13:46:30;;;;;;;14.60;5.30;;;;;;;5.94;100.00;102591.74;220256;1266;139149;-88
2024/01/28 13:51:31;;;;;;;14.20;6.00;;;;;;;5.96;100.00;102594.33;219321;1269;140409;-86
2024/01/28 13:56:32;;;;;;;14.80;5.90;;;;;;;6.01;100.00;102597.27;220040;1263;139161;-87
2024/01/28 14:01:32;;;;;;;14.40;7.20;;;;;;;6.05;100.00;102606.46;219638;1264;139618;-87
2024/01/28 14:06:33;;;;;;;20.50;6.40;;;;;;;6.09;100.00;102608.98;220242;1265;139196;-87
2024/01/28 14:11:33;;;;;;;20.10;7.90;;;;;;;6.01;100.00;102613.56;219480;1264;140594;-86
2024/01/28 14:16:35;;;;;;;25.30;7.70;;;;;;;5.96;100.00;102612.49;219961;1269;139059;-89
2024/01/28 14:21:35;;;;;;;20.60;8.50;;;;;;;5.95;100.00;102610.75;219548;1264;139479;-87
2024/01/28 14:26:36;;;;;;;19.00;9.10;;;;;;;5.89;100.00;102607.55;219898;1263;139739;-86
2024/01/28 14:31:36;;;;;;;25.00;10.20;;;;;;;5.87;100.00;102601.44;220274;1267;139707;-87
2024/01/28 14:36:37;;;;;;;23.00;8.70;;;;;;;5.81;100.00;102595.63;219719;1268;139587;-87
2024/01/28 14:41:37;;;;;;;19.70;9.50;;;;;;;5.82;100.00;102590.86;219115;1266;139771;-88
2024/01/28 14:46:38;;;;;;;25.20;9.50;;;;;;;5.81;100.00;102583.71;219609;1263;139191;-88
2024/01/28 14:51:39;;;;;;;25.60;10.40;;;;;;;5.75;100.00;102576.44;219344;1264;139890;-87
2024/01/28 14:56:40;;;;;;;22.80;8.40;;;;;;;5.72;100.00;102575.61;219945;1264;139722;-88
2024/01/28 15:01:40;;;;;;;23.40;9.20;;;;;;;5.67;100.00;102573.91;219836;1268;140335;-87
2024/01/28 15:06:41;;;;;;;22.70;7.30;;;;;;;5.61;100.00;102569.23;221626;1267;139394;-89
2024/01/28 15:11:41;;;;;;;22.40;7.70;;;;;;;5.54;100.00;102572.33;221530;1266;139724;-87
2024/01/28 15:16:42;;;;;;;16.30;8.00;;;;;;;5.46;100.00;102573.79;221887;1266;139684;-87
2024/01/28 15:21:42;;;;;;;21.50;8.10;;;;;;;5.38;100.00;102573.83;223037;1267;140130;-88
2024/01/28 15:26:43;;;;;;;18.80;7.30;;;;;;;5.26;100.00;102570.95;223742;1265;139884;-86
2024/01/28 15:31:43;;;;;;;21.00;8.00;;;;;;;5.18;100.00;102562.20;223132;1264;139940;-88
2024/01/28 15:36:44;;;;;;;20.10;9.50;;;;;;;5.11;100.00;102562.77;223787;1264;138845;-88
2024/01/28 15:41:44;;;;;;;22.10;9.40;;;;;;;4.98;100.00;102571.58;223231;1264;139672;-88
2024/01/28 15:46:45;;;;;;;30.00;12.80;;;;;;;4.83;100.00;102566.32;223774;1265;139278;-89
2024/01/28 15:51:45;;;;;;;27.40;11.20;;;;;;;4.70;100.00;102573.25;223169;1265;139952;-89
2024/01/28 15:56:46;;;;;;;19.50;9.30;;;;;;;4.49;100.00;102581.16;223560;1265;139118;-89
2024/01/28 16:01:46;;;;;;;26.80;11.10;;;;;;;4.34;100.00;102571.52;223242;1264;139602;-92
2024/01/28 16:06:47;;;;;;;35.20;13.90;;;;;;;4.22;100.00;102573.77;223832;1264;139058;-92
2024/01/28 16:11:48;;;;;;;41.60;13.50;;;;;;;4.03;100.00;102573.35;223258;1265;140408;-92
2024/01/28 16:16:48;;;;;;;29.90;12.90;;;;;;;3.89;100.00;102571.80;223844;1266;139157;-92
2024/01/28 16:21:49;;;;;;;35.40;17.10;;;;;;;3.68;100.00;102580.29;223386;1264;139812;-91
2024/01/28 16:26:49;;;;;;;21.90;11.20;;;;;;;3.53;100.00;102582.85;223937;1264;139302;-91
2024/01/28 16:31:51;;;;;;;24.20;10.20;;;;;;;3.43;100.00;102575.42;223496;1265;139508;-90
2024/01/28 16:36:52;;;;;;;22.70;10.60;;;;;;;3.33;100.00;102563.64;223818;1264;142243;-90
2024/01/28 16:41:52;;;;;;;28.90;10.90;;;;;;;3.25;100.00;102563.71;223246;1263;139660;-90
2024/01/28 16:46:53;;;;;;;24.80;11.70;;;;;;;3.16;100.00;102564.51;223593;1267;138892;-88
2024/01/28 16:51:53;;;;;;;30.90;14.50;;;;;;;3.06;100.00;102567.95;223352;1266;140682;-90
2024/01/28 16:56:54;;;;;;;26.60;13.80;;;;;;;2.96;100.00;102570.86;223608;1264;139203;-90
2024/01/28 17:01:55;;;;;;;33.10;15.80;;;;;;;2.81;100.00;102576.91;220937;1266;140038;-90
2024/01/28 17:06:56;;;;;;;29.20;14.80;;;;;;;2.71;100.00;102578.83;222346;1264;228512;-91
2024/01/28 17:11:56;;;;;;;29.00;14.20;;;;;;;2.63;100.00;102579.81;223286;1265;140733;-90
2024/01/28 17:16:57;;;;;;;26.70;12.60;;;;;;;2.56;100.00;102578.50;223795;1264;141196;-87
2024/01/28 17:21:58;;;;;;;32.30;15.10;;;;;;;2.50;100.00;102583.77;223302;1263;141375;-88
2024/01/28 17:26:59;;;;;;;27.30;13.50;;;;;;;2.42;100.00;102586.33;223853;1264;139330;-88
2024/01/28 17:32:00;;;;;;;25.20;12.50;;;;;;;2.37;100.00;102583.48;223313;1265;151857;-89
2024/01/28 17:37:01;;;;;;;26.60;13.10;;;;;;;2.33;100.00;102580.66;223782;1267;138805;-88
2024/01/28 17:42:01;;;;;;;28.20;12.70;;;;;;;2.29;100.00;102573.59;223110;1264;139661;-88
2024/01/28 17:47:01;;;;;;;31.20;12.60;;;;;;;2.24;100.00;102572.38;223769;1266;139368;-87
2024/01/28 17:52:03;;;;;;;30.20;14.00;;;;;;;2.20;100.00;102575.26;223268;1266;139849;-87
2024/01/28 17:57:04;;;;;;;25.30;14.40;;;;;;;2.18;100.00;102579.23;223532;1266;138673;-87
2024/01/28 18:02:05;;;;;;;32.20;14.90;;;;;;;2.15;100.00;102581.83;223192;1264;141101;-88
2024/01/28 18:07:05;;;;;;;31.10;15.10;;;;;;;2.12;100.00;102579.91;223786;1264;140866;-87
2024/01/28 18:12:07;;;;;;;34.80;15.40;;;;;;;2.08;100.00;102579.14;223246;1264;139764;-88
2024/01/28 18:17:08;;;;;;;40.70;18.10;;;;;;;2.04;100.00;102570.56;223807;1265;138944;-90
2024/01/28 18:22:09;;;;;;;31.70;16.40;;;;;;;2.02;100.00;102573.16;223181;1266;139948;-87
2024/01/28 18:27:10;;;;;;;33.80;16.50;;;;;;;1.99;100.00;102579.17;223855;1265;138771;-88
2024/01/28 18:32:10;;;;;;;41.10;16.70;;;;;;;1.95;100.00;102574.23;223115;1264;139939;-86
2024/01/28 18:37:11;;;;;;;36.00;17.70;;;;;;;1.91;100.00;102572.98;223765;1264;139518;-88
2024/01/28 18:42:12;;;;;;;40.40;18.00;;;;;;;1.87;100.00;102569.70;223297;1264;139855;-89
2024/01/28 18:47:14;;;;;;;35.90;17.60;;;;;;;1.85;100.00;102567.04;223767;1267;139089;-88
2024/01/28 18:52:14;;;;;;;39.60;18.50;;;;;;;1.84;100.00;102558.94;223070;1266;140397;-87
2024/01/28 18:57:15;;;;;;;40.40;19.60;;;;;;;1.84;100.00;102559.75;223800;1264;138747;-89
2024/01/28 19:02:18;;;;;;;43.50;20.40;;;;;;;1.82;100.00;102557.14;223132;1264;139678;-86
2024/01/28 19:07:18;;;;;;;42.10;18.80;;;;;;;1.80;100.00;102555.39;223735;1264;138907;-89
2024/01/28 19:12:19;;;;;;;45.70;20.80;;;;;;;1.77;100.00;102547.30;223232;1267;139695;-87
2024/01/28 19:17:19;;;;;;;43.90;19.50;;;;;;;1.76;100.00;102547.45;223757;1266;138943;-88
2024/01/28 19:22:20;;;;;;;39.40;19.50;;;;;;;1.72;100.00;102542.66;223338;1266;140465;-88
2024/01/28 19:27:20;;;;;;;38.70;21.00;;;;;;;1.70;100.00;102541.41;223809;1266;138710;-88
2024/01/28 19:32:21;;;;;;;45.10;21.10;;;;;;;1.66;100.00;102542.27;223283;1264;140011;-86
2024/01/28 19:37:21;;;;;;;53.10;22.90;;;;;;;1.62;100.00;102543.55;223801;1267;139044;-88
2024/01/28 19:42:23;;;;;;;45.20;22.70;;;;;;;1.56;100.00;102533.66;223064;1264;139798;-87
2024/01/28 19:47:24;;;;;;;47.40;22.30;;;;;;;1.51;100.00;102528.65;223721;1266;138997;-87
2024/01/28 19:52:27;;;;;;;48.90;21.20;;;;;;;1.47;100.00;102528.79;223332;1264;140530;-88
2024/01/28 19:57:27;;;;;;;57.40;26.60;;;;;;;1.43;100.00;102534.37;223665;1264;96550;-87
2024/01/28 20:02:27;;;;;;;42.30;23.30;;;;;;;1.36;100.00;102531.50;223239;1264;139687;-88
2024/01/28 20:07:28;;;;;;;45.30;21.50;;;;;;;1.30;100.00;102537.41;223741;1264;139261;-88
2024/01/28 20:12:29;;;;;;;43.90;20.20;;;;;;;1.26;100.00;102536.84;223184;1267;140881;-88
2024/01/28 20:17:30;;;;;;;43.20;20.20;;;;;;;1.23;100.00;102535.73;223796;1263;138867;-88
2024/01/28 20:22:31;;;;;;;40.50;20.20;;;;;;;1.20;100.00;102533.50;223209;1266;139998;-88
2024/01/28 20:27:31;;;;;;;37.70;18.20;;;;;;;1.16;100.00;102536.69;223727;1264;96354;-88
2024/01/28 20:32:31;;;;;;;43.90;19.30;;;;;;;1.12;100.00;102539.86;223276;1264;139792;-88
2024/01/28 20:37:33;;;;;;;47.60;21.20;;;;;;;1.10;100.00;102537.79;223808;1264;139052;-90
2024/01/28 20:42:34;;;;;;;43.70;19.70;;;;;;;1.09;100.00;102539.67;223225;1263;139911;-88
2024/01/28 20:47:34;;;;;;;43.00;20.40;;;;;;;1.07;100.00;102537.61;223794;1264;138968;-89
2024/01/28 20:52:35;;;;;;;48.50;20.80;;;;;;;1.06;100.00;102526.86;223239;1264;140589;-89
2024/01/28 20:57:35;;;;;;;42.30;19.90;;;;;;;1.04;100.00;102523.17;223847;1264;96134;-92
2024/01/28 21:02:36;;;;;;;46.60;20.90;;;;;;;1.04;100.00;102522.14;223143;1263;139827;-88
2024/01/28 21:07:36;;;;;;;44.30;19.30;;;;;;;1.03;100.00;102510.36;223632;1266;138978;-88
2024/01/28 21:12:37;;;;;;;86.50;35.20;;;;;;;1.01;100.00;102513.12;223213;1264;140228;-89
2024/01/28 21:17:38;;;;;;;73.80;31.80;;;;;;;0.98;100.00;102505.35;223802;1264;138911;-88
2024/01/28 21:22:38;;;;;;;63.70;29.80;;;;;;;0.92;100.00;102498.97;223249;1265;139675;-88
2024/01/28 21:27:40;;;;;;;77.20;32.40;;;;;;;0.88;100.00;102492.59;223967;1264;96376;-89
2024/01/28 21:32:41;;;;;;;50.10;25.10;;;;;;;0.86;100.00;102490.53;223329;1264;139603;-88
2024/01/28 21:37:41;;;;;;;50.60;26.00;;;;;;;0.86;100.00;102487.00;223775;1264;139028;-87
2024/01/28 21:42:42;;;;;;;55.10;23.90;;;;;;;0.85;100.00;102488.96;223276;1264;140237;-88
2024/01/28 21:47:42;;;;;;;51.00;25.80;;;;;;;0.85;100.00;102484.79;223783;1264;139131;-88
2024/01/28 21:52:42;;;;;;;53.70;25.50;;;;;;;0.85;100.00;102475.77;223192;1264;139880;-87
2024/01/28 21:57:44;;;;;;;54.60;24.50;;;;;;;0.83;100.00;102476.31;223918;1264;96765;-88
2024/01/28 22:02:45;;;;;;;62.80;26.30;;;;;;;0.83;100.00;102475.45;223183;1264;139966;-89
2024/01/28 22:07:45;;;;;;;65.40;26.90;;;;;;;0.82;100.00;102472.67;223708;1267;139545;-91
2024/01/28 22:12:46;;;;;;;58.60;25.20;;;;;;;0.83;100.00;102471.42;223316;1264;140032;-92
2024/01/28 22:17:46;;;;;;;51.50;24.90;;;;;;;0.81;100.00;102470.88;223818;1264;139502;-90
2024/01/28 22:22:47;;;;;;;62.90;26.70;;;;;;;0.80;100.00;102468.38;223175;1267;139714;-90
2024/01/28 22:27:48;;;;;;;58.50;27.20;;;;;;;0.78;100.00;102461.10;223966;1264;96362;-90